Wetterdaten: Woche 04.07.16 - 10.07.16 (KW27)
Datum Zeit Temperatur Luftfeuchte Luftdruck Niederschlag Windrichtung Sonnenschein Solar Wind
04.07.2016 00:00 14,6 C 82 % 1020,9 hPa 0,0 l/m N 0,00 h 0 W/m 1,6 km/h (1 Bft)
04.07.2016 01:00 14,4 C 82 % 1020,6 hPa 0,0 l/m N 0,00 h 0 W/m 2,8 km/h (1 Bft)
04.07.2016 02:00 13,2 C 87 % 1020,4 hPa 0,0 l/m N 0,00 h 0 W/m 0,0 km/h (0 Bft)
04.07.2016 03:00 12,8 C 91 % 1020,2 hPa 0,0 l/m N 0,00 h 0 W/m 0,0 km/h (0 Bft)
04.07.2016 04:00 12,5 C 92 % 1019,9 hPa 0,0 l/m N 0,00 h 0 W/m 0,0 km/h (0 Bft)
04.07.2016 05:00 12,6 C 93 % 1019,8 hPa 0,0 l/m N 0,00 h 8 W/m 0,4 km/h (0 Bft)
04.07.2016 06:00 13,1 C 92 % 1019,7 hPa 0,0 l/m N-NO 0,00 h 33 W/m 0,8 km/h (0 Bft)
04.07.2016 07:00 14,0 C 87 % 1019,8 hPa 0,0 l/m N-NO 0,33 h 135 W/m 0,0 km/h (0 Bft)
04.07.2016 08:00 15,6 C 80 % 1019,8 hPa 0,0 l/m N 0,42 h 261 W/m 2,7 km/h (1 Bft)
04.07.2016 09:00 17,7 C 75 % 1019,5 hPa 0,0 l/m N-NO 1,00 h 534 W/m 5,2 km/h (1 Bft)
04.07.2016 10:00 19,2 C 68 % 1019,2 hPa 0,0 l/m N 1,00 h 670 W/m 5,9 km/h (2 Bft)
04.07.2016 11:00 20,5 C 64 % 1018,9 hPa 0,0 l/m W-NW 0,83 h 698 W/m 8,0 km/h (2 Bft)
04.07.2016 12:00 21,7 C 60 % 1018,7 hPa 0,0 l/m N-NO 0,83 h 825 W/m 8,2 km/h (2 Bft)
04.07.2016 13:00 21,7 C 60 % 1018,3 hPa 0,0 l/m N-NO 0,50 h 681 W/m 5,3 km/h (1 Bft)
04.07.2016 14:00 23,0 C 54 % 1017,9 hPa 0,0 l/m N-NO 0,50 h 626 W/m 7,6 km/h (2 Bft)
04.07.2016 15:00 23,7 C 52 % 1017,3 hPa 0,0 l/m O-SO 0,50 h 552 W/m 5,9 km/h (2 Bft)
04.07.2016 16:00 24,1 C 52 % 1016,9 hPa 0,0 l/m O-SO 0,75 h 695 W/m 8,0 km/h (2 Bft)
04.07.2016 17:00 24,4 C 53 % 1016,5 hPa 0,0 l/m O-SO 0,92 h 564 W/m 5,5 km/h (1 Bft)
04.07.2016 18:00 24,0 C 52 % 1016,1 hPa 0,0 l/m SO 0,42 h 282 W/m 2,8 km/h (1 Bft)
04.07.2016 19:00 23,5 C 54 % 1015,8 hPa 0,0 l/m SO 0,92 h 228 W/m 4,4 km/h (1 Bft)
04.07.2016 20:00 21,7 C 66 % 1015,7 hPa 0,0 l/m SO 0,08 h 32 W/m 2,5 km/h (1 Bft)
04.07.2016 21:00 18,5 C 79 % 1015,7 hPa 0,0 l/m N 0,00 h 7 W/m 0,0 km/h (0 Bft)
04.07.2016 22:00 16,7 C 85 % 1015,8 hPa 0,0 l/m N 0,00 h 0 W/m 0,1 km/h (0 Bft)
04.07.2016 23:00 15,8 C 88 % 1015,6 hPa 0,0 l/m N 0,00 h 0 W/m 0,1 km/h (0 Bft)
05.07.2016 00:00 14,9 C 91 % 1015,3 hPa 0,0 l/m N 0,00 h 0 W/m 0,0 km/h (0 Bft)
05.07.2016 01:00 14,1 C 94 % 1015,3 hPa 0,0 l/m N 0,00 h 0 W/m 0,0 km/h (0 Bft)
05.07.2016 02:00 13,4 C 95 % 1015,1 hPa 0,0 l/m N 0,00 h 0 W/m 0,0 km/h (0 Bft)
05.07.2016 03:00 13,0 C 96 % 1014,7 hPa 0,0 l/m N 0,00 h 0 W/m 0,0 km/h (0 Bft)
05.07.2016 04:00 12,4 C 97 % 1014,5 hPa 0,0 l/m N 0,00 h 0 W/m 0,0 km/h (0 Bft)
05.07.2016 05:00 12,0 C 98 % 1014,4 hPa 0,0 l/m N 0,00 h 9 W/m 0,1 km/h (0 Bft)
05.07.2016 06:00 12,6 C 98 % 1014,6 hPa 0,0 l/m N 0,08 h 51 W/m 0,0 km/h (0 Bft)
05.07.2016 07:00 13,8 C 97 % 1014,7 hPa 0,0 l/m N 0,25 h 139 W/m 0,0 km/h (0 Bft)
05.07.2016 08:00 16,6 C 91 % 1014,7 hPa 0,0 l/m SO 0,50 h 267 W/m 1,5 km/h (1 Bft)
05.07.2016 09:00 19,4 C 81 % 1014,7 hPa 0,0 l/m SO 0,75 h 433 W/m 3,3 km/h (1 Bft)
05.07.2016 10:00 21,3 C 72 % 1014,8 hPa 0,0 l/m NW 0,75 h 462 W/m 8,6 km/h (2 Bft)
05.07.2016 11:00 21,6 C 71 % 1014,6 hPa 0,0 l/m W-NW 0,00 h 273 W/m 10,2 km/h (2 Bft)
05.07.2016 12:00 22,3 C 69 % 1014,6 hPa 0,0 l/m W-NW 0,42 h 553 W/m 13,2 km/h (3 Bft)
05.07.2016 13:00 23,5 C 65 % 1014,3 hPa 0,0 l/m W 0,42 h 539 W/m 16,9 km/h (3 Bft)
05.07.2016 14:00 24,7 C 61 % 1013,6 hPa 0,0 l/m W-SW 1,00 h 991 W/m 23,3 km/h (4 Bft)
05.07.2016 15:00 24,3 C 62 % 1013,3 hPa 0,0 l/m W-SW 0,42 h 526 W/m 18,9 km/h (3 Bft)
05.07.2016 16:00 25,1 C 59 % 1013,0 hPa 0,0 l/m W-SW 0,75 h 634 W/m 21,6 km/h (4 Bft)
05.07.2016 17:00 24,4 C 59 % 1012,8 hPa 0,0 l/m W-NW 0,42 h 392 W/m 14,4 km/h (3 Bft)
05.07.2016 18:00 24,0 C 57 % 1012,9 hPa 0,0 l/m N 0,25 h 239 W/m 17,7 km/h (3 Bft)
05.07.2016 19:00 22,1 C 63 % 1013,4 hPa 0,0 l/m N 0,25 h 118 W/m 18,4 km/h (3 Bft)
05.07.2016 20:00 20,4 C 67 % 1014,0 hPa 0,0 l/m N 0,17 h 33 W/m 14,6 km/h (3 Bft)
05.07.2016 21:00 18,5 C 72 % 1015,0 hPa 0,0 l/m N 0,08 h 7 W/m 4,6 km/h (1 Bft)
05.07.2016 22:00 16,1 C 84 % 1015,6 hPa 0,0 l/m N 0,00 h 0 W/m 0,0 km/h (0 Bft)
05.07.2016 23:00 14,6 C 89 % 1016,0 hPa 0,0 l/m N 0,00 h 0 W/m 0,0 km/h (0 Bft)
06.07.2016 00:00 13,7 C 92 % 1016,3 hPa 0,0 l/m N 0,00 h 0 W/m 0,0 km/h (0 Bft)
06.07.2016 01:00 13,5 C 92 % 1016,3 hPa 0,0 l/m N 0,00 h 0 W/m 0,0 km/h (0 Bft)
06.07.2016 02:00 12,8 C 94 % 1016,3 hPa 0,0 l/m N 0,00 h 0 W/m 0,0 km/h (0 Bft)
06.07.2016 03:00 12,8 C 95 % 1016,4 hPa 0,0 l/m N 0,00 h 0 W/m 0,0 km/h (0 Bft)
06.07.2016 04:00 13,4 C 95 % 1016,4 hPa 0,0 l/m N 0,00 h 0 W/m 0,0 km/h (0 Bft)
06.07.2016 05:00 14,3 C 90 % 1016,5 hPa 0,0 l/m NW 0,00 h 6 W/m 4,1 km/h (1 Bft)
06.07.2016 06:00 14,7 C 87 % 1016,8 hPa 0,0 l/m NW 0,00 h 24 W/m 7,2 km/h (2 Bft)
06.07.2016 07:00 14,8 C 87 % 1017,0 hPa 0,0 l/m NW 0,00 h 59 W/m 5,5 km/h (1 Bft)
06.07.2016 08:00 16,0 C 78 % 1017,3 hPa 0,0 l/m N-NW 0,00 h 141 W/m 9,4 km/h (2 Bft)
06.07.2016 09:00 17,0 C 74 % 1017,4 hPa 0,0 l/m NW 0,17 h 253 W/m 7,9 km/h (2 Bft)
06.07.2016 10:00 18,1 C 71 % 1017,6 hPa 0,0 l/m NW 0,33 h 374 W/m 9,7 km/h (2 Bft)
06.07.2016 11:00 19,4 C 65 % 1017,6 hPa 0,0 l/m W-NW 0,50 h 606 W/m 12,3 km/h (3 Bft)
06.07.2016 12:00 19,9 C 62 % 1017,8 hPa 0,0 l/m NW 0,17 h 374 W/m 12,4 km/h (3 Bft)
06.07.2016 13:00 21,3 C 57 % 1017,7 hPa 0,0 l/m NW 0,75 h 756 W/m 13,6 km/h (3 Bft)
06.07.2016 14:00 22,4 C 52 % 1017,3 hPa 0,0 l/m N-NO 0,83 h 793 W/m 12,8 km/h (3 Bft)
06.07.2016 15:00 22,1 C 53 % 1017,1 hPa 0,0 l/m N-NW 0,33 h 391 W/m 10,9 km/h (2 Bft)
06.07.2016 16:00 21,7 C 56 % 1017,0 hPa 0,0 l/m N-NO 0,42 h 386 W/m 12,9 km/h (3 Bft)
06.07.2016 17:00 21,5 C 57 % 1016,9 hPa 0,0 l/m N 0,17 h 281 W/m 11,9 km/h (2 Bft)
06.07.2016 18:00 21,3 C 56 % 1016,9 hPa 0,0 l/m NO 0,58 h 306 W/m 12,4 km/h (3 Bft)
06.07.2016 19:00 21,0 C 56 % 1017,3 hPa 0,0 l/m N-NO 0,83 h 232 W/m 13,2 km/h (3 Bft)
06.07.2016 20:00 19,2 C 61 % 1017,8 hPa 0,0 l/m NO 0,00 h 38 W/m 9,9 km/h (2 Bft)
06.07.2016 21:00 16,8 C 73 % 1018,4 hPa 0,0 l/m N 0,08 h 9 W/m 1,2 km/h (1 Bft)
06.07.2016 22:00 14,9 C 81 % 1018,9 hPa 0,0 l/m N 0,00 h 0 W/m 1,2 km/h (1 Bft)
06.07.2016 23:00 13,8 C 83 % 1019,1 hPa 0,0 l/m N 0,00 h 0 W/m 0,0 km/h (0 Bft)
07.07.2016 00:00 13,2 C 86 % 1019,4 hPa 0,0 l/m N 0,00 h 0 W/m 0,1 km/h (0 Bft)
07.07.2016 01:00 12,5 C 86 % 1019,4 hPa 0,0 l/m N 0,00 h 0 W/m 0,0 km/h (0 Bft)
07.07.2016 02:00 12,2 C 87 % 1019,1 hPa 0,0 l/m N 0,00 h 0 W/m 0,0 km/h (0 Bft)
07.07.2016 03:00 12,0 C 89 % 1018,9 hPa 0,0 l/m N 0,00 h 0 W/m 0,0 km/h (0 Bft)
07.07.2016 04:00 11,3 C 92 % 1018,7 hPa 0,0 l/m N 0,00 h 0 W/m 0,0 km/h (0 Bft)
07.07.2016 05:00 11,0 C 94 % 1018,9 hPa 0,0 l/m N 0,00 h 7 W/m 0,0 km/h (0 Bft)
07.07.2016 06:00 12,1 C 91 % 1019,1 hPa 0,0 l/m N 0,00 h 31 W/m 0,0 km/h (0 Bft)
07.07.2016 07:00 13,5 C 89 % 1019,5 hPa 0,0 l/m N 0,42 h 160 W/m 0,0 km/h (0 Bft)
07.07.2016 08:00 16,3 C 75 % 1019,6 hPa 0,0 l/m O-NO 1,00 h 356 W/m 1,5 km/h (1 Bft)
07.07.2016 09:00 18,7 C 62 % 1019,5 hPa 0,0 l/m O-NO 1,00 h 531 W/m 4,5 km/h (1 Bft)
07.07.2016 10:00 20,2 C 57 % 1019,3 hPa 0,0 l/m O-NO 1,00 h 677 W/m 7,2 km/h (2 Bft)
07.07.2016 11:00 21,3 C 54 % 1019,0 hPa 0,0 l/m NO 1,00 h 800 W/m 7,4 km/h (2 Bft)
07.07.2016 12:00 22,5 C 50 % 1018,8 hPa 0,0 l/m O-NO 1,00 h 848 W/m 9,8 km/h (2 Bft)
07.07.2016 13:00 23,1 C 46 % 1018,5 hPa 0,0 l/m N-NO 1,00 h 917 W/m 8,3 km/h (2 Bft)
07.07.2016 14:00 24,0 C 44 % 1018,2 hPa 0,0 l/m N-NO 1,00 h 896 W/m 9,0 km/h (2 Bft)
07.07.2016 15:00 24,8 C 42 % 1017,6 hPa 0,0 l/m N-NO 1,00 h 823 W/m 11,7 km/h (2 Bft)
07.07.2016 16:00 25,1 C 42 % 1017,5 hPa 0,0 l/m N-NO 1,00 h 730 W/m 9,4 km/h (2 Bft)
07.07.2016 17:00 25,2 C 41 % 1017,0 hPa 0,0 l/m NO 1,00 h 597 W/m 10,2 km/h (2 Bft)
07.07.2016 18:00 25,1 C 41 % 1016,6 hPa 0,0 l/m NO 1,00 h 424 W/m 8,6 km/h (2 Bft)
07.07.2016 19:00 24,2 C 44 % 1016,5 hPa 0,0 l/m O 0,92 h 238 W/m 9,4 km/h (2 Bft)
07.07.2016 20:00 22,4 C 52 % 1016,6 hPa 0,0 l/m O 0,08 h 39 W/m 5,3 km/h (1 Bft)
07.07.2016 21:00 18,4 C 72 % 1016,7 hPa 0,0 l/m N 0,08 h 10 W/m 0,0 km/h (0 Bft)
07.07.2016 22:00 16,5 C 78 % 1017,0 hPa 0,0 l/m N 0,00 h 0 W/m 0,0 km/h (0 Bft)
07.07.2016 23:00 15,4 C 81 % 1017,1 hPa 0,0 l/m N 0,00 h 0 W/m 0,1 km/h (0 Bft)
08.07.2016 00:00 14,7 C 82 % 1017,1 hPa 0,0 l/m N 0,00 h 0 W/m 0,8 km/h (0 Bft)
08.07.2016 01:00 14,0 C 84 % 1016,7 hPa 0,0 l/m N 0,00 h 0 W/m 0,0 km/h (0 Bft)
08.07.2016 02:00 13,4 C 87 % 1016,4 hPa 0,0 l/m N 0,00 h 0 W/m 1,1 km/h (0 Bft)
08.07.2016 03:00 13,3 C 87 % 1016,4 hPa 0,0 l/m O 0,00 h 0 W/m 3,5 km/h (1 Bft)
08.07.2016 04:00 12,6 C 90 % 1015,8 hPa 0,0 l/m N 0,00 h 0 W/m 0,0 km/h (0 Bft)
08.07.2016 05:00 12,0 C 92 % 1015,8 hPa 0,0 l/m N 0,08 h 9 W/m 0,0 km/h (0 Bft)
08.07.2016 06:00 12,4 C 92 % 1015,8 hPa 0,0 l/m O 0,25 h 61 W/m 0,5 km/h (0 Bft)
08.07.2016 07:00 14,2 C 87 % 1016,2 hPa 0,0 l/m O 0,08 h 103 W/m 2,1 km/h (1 Bft)
08.07.2016 08:00 16,9 C 78 % 1016,3 hPa 0,0 l/m N 0,75 h 345 W/m 1,5 km/h (1 Bft)
08.07.2016 09:00 19,5 C 73 % 1015,8 hPa 0,0 l/m O-SO 1,00 h 510 W/m 6,7 km/h (2 Bft)
08.07.2016 10:00 22,1 C 66 % 1015,6 hPa 0,0 l/m S 1,00 h 737 W/m 11,3 km/h (2 Bft)
08.07.2016 11:00 23,3 C 65 % 1015,5 hPa 0,0 l/m SW 0,92 h 783 W/m 16,6 km/h (3 Bft)
08.07.2016 12:00 25,0 C 56 % 1015,2 hPa 0,0 l/m W-SW 1,00 h 870 W/m 20,5 km/h (4 Bft)
08.07.2016 13:00 25,9 C 51 % 1014,6 hPa 0,0 l/m W 1,00 h 892 W/m 23,7 km/h (4 Bft)
08.07.2016 14:00 26,9 C 48 % 1014,4 hPa 0,0 l/m W-SW 1,00 h 851 W/m 20,0 km/h (4 Bft)
08.07.2016 15:00 27,2 C 48 % 1014,3 hPa 0,0 l/m W-SW 0,92 h 714 W/m 17,4 km/h (3 Bft)
08.07.2016 16:00 27,8 C 45 % 1014,1 hPa 0,0 l/m W-SW 1,00 h 727 W/m 21,0 km/h (4 Bft)
08.07.2016 17:00 27,5 C 45 % 1014,0 hPa 0,0 l/m W-SW 0,50 h 373 W/m 16,4 km/h (3 Bft)
08.07.2016 18:00 26,2 C 48 % 1014,2 hPa 0,0 l/m W-SW 0,50 h 300 W/m 13,0 km/h (3 Bft)
08.07.2016 19:00 25,7 C 55 % 1014,2 hPa 0,0 l/m W-SW 0,75 h 189 W/m 13,2 km/h (3 Bft)
08.07.2016 20:00 23,8 C 52 % 1014,7 hPa 0,0 l/m W 0,00 h 30 W/m 7,7 km/h (2 Bft)
08.07.2016 21:00 20,8 C 66 % 1015,4 hPa 0,0 l/m N 0,00 h 7 W/m 0,4 km/h (0 Bft)
08.07.2016 22:00 19,2 C 73 % 1016,1 hPa 0,0 l/m W 0,00 h 0 W/m 2,3 km/h (1 Bft)
08.07.2016 23:00 20,7 C 62 % 1016,6 hPa 0,0 l/m W-NW 0,00 h 0 W/m 11,3 km/h (2 Bft)
09.07.2016 00:00 20,3 C 62 % 1016,9 hPa 0,0 l/m W 0,00 h 0 W/m 7,0 km/h (2 Bft)
09.07.2016 01:00 18,4 C 73 % 1017,0 hPa 0,0 l/m N 0,00 h 0 W/m 1,2 km/h (1 Bft)
09.07.2016 02:00 17,9 C 76 % 1016,9 hPa 0,0 l/m N 0,00 h 0 W/m 1,2 km/h (1 Bft)
09.07.2016 03:00 18,7 C 71 % 1016,8 hPa 0,0 l/m W 0,00 h 0 W/m 6,6 km/h (2 Bft)
09.07.2016 04:00 19,2 C 71 % 1016,6 hPa 0,0 l/m W 0,00 h 0 W/m 8,7 km/h (2 Bft)
09.07.2016 05:00 18,7 C 73 % 1016,9 hPa 0,0 l/m W 0,00 h 7 W/m 6,2 km/h (2 Bft)
09.07.2016 06:00 18,7 C 75 % 1017,0 hPa 0,0 l/m N 0,00 h 25 W/m 0,8 km/h (0 Bft)
09.07.2016 07:00 18,9 C 79 % 1017,5 hPa 0,0 l/m N 0,00 h 69 W/m 0,0 km/h (0 Bft)
09.07.2016 08:00 19,9 C 77 % 1017,6 hPa 0,0 l/m W 0,00 h 148 W/m 5,1 km/h (1 Bft)
09.07.2016 09:00 20,8 C 72 % 1017,7 hPa 0,0 l/m W 0,00 h 175 W/m 11,8 km/h (2 Bft)
09.07.2016 10:00 21,6 C 69 % 1017,7 hPa 0,0 l/m W 0,00 h 246 W/m 11,2 km/h (2 Bft)
09.07.2016 11:00 22,7 C 65 % 1017,7 hPa 0,0 l/m W-NW 0,17 h 403 W/m 12,8 km/h (3 Bft)
09.07.2016 12:00 24,3 C 61 % 1017,3 hPa 0,0 l/m W 0,83 h 743 W/m 16,4 km/h (3 Bft)
09.07.2016 13:00 24,7 C 59 % 1017,1 hPa 0,0 l/m W 0,75 h 766 W/m 17,6 km/h (3 Bft)
09.07.2016 14:00 25,6 C 56 % 1016,8 hPa 0,0 l/m W-NW 0,67 h 764 W/m 18,9 km/h (3 Bft)
09.07.2016 15:00 26,3 C 54 % 1016,4 hPa 0,0 l/m W-SW 0,83 h 728 W/m 17,0 km/h (3 Bft)
09.07.2016 16:00 25,8 C 54 % 1016,2 hPa 0,0 l/m W-NW 0,33 h 408 W/m 14,6 km/h (3 Bft)
09.07.2016 17:00 25,5 C 57 % 1015,8 hPa 0,0 l/m NW 0,17 h 256 W/m 7,0 km/h (2 Bft)
09.07.2016 18:00 26,3 C 51 % 1015,5 hPa 0,0 l/m W-NW 0,67 h 342 W/m 8,4 km/h (2 Bft)
09.07.2016 19:00 25,6 C 48 % 1015,5 hPa 0,0 l/m N 0,83 h 226 W/m 10,4 km/h (2 Bft)
09.07.2016 20:00 23,8 C 56 % 1015,6 hPa 0,0 l/m N 0,08 h 36 W/m 3,9 km/h (1 Bft)
09.07.2016 21:00 20,8 C 70 % 1015,8 hPa 0,0 l/m N 0,00 h 8 W/m 0,8 km/h (0 Bft)
09.07.2016 22:00 19,1 C 76 % 1016,3 hPa 0,0 l/m N 0,00 h 0 W/m 2,3 km/h (1 Bft)
09.07.2016 23:00 18,0 C 79 % 1016,3 hPa 0,0 l/m N 0,00 h 0 W/m 0,3 km/h (0 Bft)
10.07.2016 00:00 16,9 C 83 % 1016,2 hPa 0,0 l/m N 0,00 h 0 W/m 0,3 km/h (0 Bft)
10.07.2016 01:00 16,2 C 87 % 1016,0 hPa 0,0 l/m N 0,00 h 0 W/m 0,0 km/h (0 Bft)
10.07.2016 02:00 15,6 C 89 % 1015,4 hPa 0,0 l/m N 0,00 h 0 W/m 0,0 km/h (0 Bft)
10.07.2016 03:00 15,1 C 90 % 1015,0 hPa 0,0 l/m N 0,00 h 0 W/m 0,0 km/h (0 Bft)
10.07.2016 04:00 15,0 C 91 % 1014,3 hPa 0,0 l/m N 0,00 h 0 W/m 0,8 km/h (0 Bft)
10.07.2016 05:00 15,0 C 91 % 1014,0 hPa 0,0 l/m N 0,00 h 7 W/m 3,2 km/h (1 Bft)
10.07.2016 06:00 15,1 C 91 % 1014,0 hPa 0,0 l/m N 0,00 h 35 W/m 2,5 km/h (1 Bft)
10.07.2016 07:00 16,8 C 86 % 1014,1 hPa 0,0 l/m N 0,75 h 185 W/m 4,0 km/h (1 Bft)
10.07.2016 08:00 19,3 C 78 % 1014,1 hPa 0,0 l/m N 1,00 h 350 W/m 6,3 km/h (2 Bft)
10.07.2016 09:00 21,9 C 71 % 1013,9 hPa 0,0 l/m N 1,00 h 514 W/m 3,5 km/h (1 Bft)
10.07.2016 10:00 24,6 C 62 % 1013,4 hPa 0,0 l/m O 1,00 h 662 W/m 6,0 km/h (2 Bft)
10.07.2016 11:00 26,3 C 56 % 1012,8 hPa 0,0 l/m O-SO 1,00 h 779 W/m 7,0 km/h (2 Bft)
10.07.2016 12:00 27,6 C 55 % 1012,3 hPa 0,0 l/m S-SO 1,00 h 857 W/m 6,5 km/h (2 Bft)
10.07.2016 13:00 29,0 C 50 % 1011,7 hPa 0,0 l/m S-SO 1,00 h 887 W/m 6,8 km/h (2 Bft)
10.07.2016 14:00 29,8 C 48 % 1011,0 hPa 0,0 l/m SW 1,00 h 874 W/m 11,7 km/h (2 Bft)
10.07.2016 15:00 30,6 C 46 % 1010,3 hPa 0,0 l/m SW 1,00 h 817 W/m 14,2 km/h (3 Bft)
10.07.2016 16:00 30,9 C 44 % 1009,8 hPa 0,0 l/m W-SW 1,00 h 711 W/m 14,9 km/h (3 Bft)
10.07.2016 17:00 30,6 C 45 % 1009,3 hPa 0,0 l/m SW 1,00 h 572 W/m 14,6 km/h (3 Bft)
10.07.2016 18:00 29,7 C 50 % 1009,0 hPa 0,0 l/m W-SW 1,00 h 385 W/m 12,8 km/h (3 Bft)
10.07.2016 19:00 28,3 C 56 % 1008,9 hPa 0,0 l/m W 0,42 h 146 W/m 8,7 km/h (2 Bft)
10.07.2016 20:00 25,9 C 65 % 1008,6 hPa 0,0 l/m W 0,08 h 41 W/m 5,1 km/h (1 Bft)
10.07.2016 21:00 23,9 C 70 % 1008,8 hPa 0,0 l/m W 0,00 h 8 W/m 4,9 km/h (1 Bft)
10.07.2016 22:00 21,8 C 80 % 1009,1 hPa 0,0 l/m N 0,00 h 0 W/m 0,0 km/h (0 Bft)
10.07.2016 23:00 22,1 C 77 % 1009,5 hPa 0,0 l/m W 0,00 h 0 W/m 5,6 km/h (1 Bft)
Min-Datum _ 07.07.16 07.07.16 10.07.16 - - - - 04.07.16
_ Min-Zeit 05:10 15:20 20:05 - - - - 00:00
Minimum _ 10,7 C 39 % 1008,6 hPa - - - - 0,0 km/h (0 Bft)
Max-Datum _ 10.07.16 05.07.16 04.07.16 04.07.16 - 04.07.16 04.07.16 08.07.16
_ Max-Zeit 16:25 04:45 00:30 00:00 - 07:30 14:20 14:10
Maximum _ 31,1 C 98 % 1021,1 hPa 0,0 l/m - 0,08 h 1081 W/m 33,8 km/h
W-SW (5 Bft)
Durchschnitt _ 19,6 C 71 % 1016,1 hPa #0,0 l/m W #61:30 h 389 W/m 6,4 km/h (2 Bft)